Time;durP1;ratioP1;P1;durP2;ratioP2;P2;SDS_P1;SDS_P2;PMS_P1;PMS_P2;Temp;Humidity;BMP_temperature;BMP_pressure;BME280_temperature;BME280_humidity;BME280_pressure;Samples;Min_cycle;Max_cycle;Signal;HPM_P1;HPM_P2
2021/07/28 00:01:54;;;;;;;6.97;4.15;;;20.80;99.90;;;;;;5020804;28;20079;-76
2021/07/28 00:04:21;;;;;;;7.28;4.40;;;20.80;99.90;;;;;;5023476;28;20054;-78
2021/07/28 00:06:50;;;;;;;7.50;4.78;;;20.80;99.90;;;;;;5024586;28;20053;-79
2021/07/28 00:09:17;;;;;;;6.38;4.47;;;20.80;99.90;;;;;;5022625;28;20456;-80
2021/07/28 00:11:44;;;;;;;6.93;4.53;;;20.70;99.90;;;;;;5026276;28;20531;-78
2021/07/28 00:14:11;;;;;;;6.45;4.40;;;20.70;99.90;;;;;;5022271;28;20508;-79
2021/07/28 00:16:38;;;;;;;7.28;4.80;;;20.70;99.90;;;;;;5020646;28;20045;-77
2021/07/28 00:19:10;;;;;;;8.63;5.38;;;20.70;99.90;;;;;;5028173;28;20139;-74
2021/07/28 00:24:29;;;;;;;6.75;4.35;;;20.70;99.90;;;;;;5028351;28;20131;-79
2021/07/28 00:26:57;;;;;;;7.82;4.15;;;20.60;99.90;;;;;;5015024;28;20077;-78
2021/07/28 00:29:24;;;;;;;6.80;4.47;;;20.70;99.90;;;;;;5031068;28;20053;-79
2021/07/28 00:31:51;;;;;;;7.38;4.35;;;20.70;99.90;;;;;;5023754;28;20136;-77
2021/07/28 00:34:18;;;;;;;9.23;4.80;;;20.80;99.90;;;;;;5024621;28;20410;-79
2021/07/28 00:36:45;;;;;;;7.63;4.63;;;20.80;99.90;;;;;;5024446;28;20069;-78
2021/07/28 00:39:12;;;;;;;7.38;4.20;;;20.80;99.90;;;;;;5024076;28;20049;-79
2021/07/28 00:41:42;;;;;;;7.47;4.53;;;20.80;99.90;;;;;;5026330;28;20046;-79
2021/07/28 00:44:09;;;;;;;7.88;5.13;;;20.90;99.90;;;;;;5024239;28;20108;-78
2021/07/28 00:46:36;;;;;;;8.73;5.47;;;20.90;99.90;;;;;;5021512;28;20070;-78
2021/07/28 00:49:03;;;;;;;8.63;5.63;;;20.90;99.90;;;;;;5017517;28;20045;-79
2021/07/28 00:51:31;;;;;;;9.43;5.50;;;20.80;99.90;;;;;;5018716;28;20127;-79
2021/07/28 00:53:58;;;;;;;7.50;5.55;;;20.80;99.90;;;;;;5025356;28;20050;-79
2021/07/28 00:56:27;;;;;;;9.20;5.53;;;20.80;99.90;;;;;;5024909;28;20045;-78
2021/07/28 00:58:57;;;;;;;9.57;5.57;;;20.70;99.90;;;;;;5025783;28;20049;-76
2021/07/28 01:01:24;;;;;;;7.85;4.90;;;20.70;99.90;;;;;;5020341;28;20083;-77
2021/07/28 01:03:51;;;;;;;8.15;5.13;;;20.70;99.90;;;;;;5027566;28;20411;-77
2021/07/28 01:06:18;;;;;;;7.93;5.05;;;20.70;99.90;;;;;;5042094;28;20128;-77
2021/07/28 01:08:46;;;;;;;8.70;5.55;;;20.70;99.90;;;;;;5027843;28;20467;-78
2021/07/28 01:11:13;;;;;;;7.97;5.28;;;20.70;99.90;;;;;;5027144;28;20050;-77
2021/07/28 01:13:40;;;;;;;8.40;5.25;;;20.70;99.90;;;;;;5020470;28;20046;-79
2021/07/28 01:16:11;;;;;;;8.50;5.20;;;20.70;99.90;;;;;;5022403;28;20575;-78
2021/07/28 01:18:39;;;;;;;7.00;4.40;;;20.60;99.90;;;;;;5025624;28;20076;-79
2021/07/28 01:21:08;;;;;;;8.43;5.60;;;20.60;99.90;;;;;;5033453;28;20049;-76
2021/07/28 01:23:38;;;;;;;8.68;5.40;;;20.60;99.90;;;;;;5033193;28;20041;-78
2021/07/28 01:26:07;;;;;;;8.38;5.70;;;20.60;99.90;;;;;;5024748;28;20474;-80
2021/07/28 01:28:37;;;;;;;9.20;5.82;;;20.60;99.90;;;;;;5021875;28;20150;-80
2021/07/28 01:31:06;;;;;;;9.98;6.18;;;20.60;99.90;;;;;;5022456;28;20052;-79
2021/07/28 01:33:35;;;;;;;9.02;5.32;;;20.60;99.90;;;;;;5026905;28;20049;-79
2021/07/28 01:36:07;;;;;;;8.63;5.18;;;20.60;99.90;;;;;;5020162;28;20459;-79
2021/07/28 01:38:36;;;;;;;9.48;5.85;;;20.60;99.90;;;;;;5029332;28;20132;-80
2021/07/28 01:41:06;;;;;;;8.60;5.88;;;20.60;99.90;;;;;;5022709;28;20132;-79
2021/07/28 01:43:33;;;;;;;9.65;6.03;;;20.60;99.90;;;;;;5021582;28;20049;-78
2021/07/28 01:46:02;;;;;;;8.73;5.32;;;20.60;99.90;;;;;;5021635;28;20054;-79
2021/07/28 01:48:30;;;;;;;7.43;5.38;;;20.50;99.90;;;;;;5017583;28;20124;-79
2021/07/28 01:50:58;;;;;;;8.20;5.25;;;20.50;99.90;;;;;;5025112;28;20055;-79
2021/07/28 01:53:26;;;;;;;7.60;5.25;;;20.50;99.90;;;;;;5021861;28;20052;-80
2021/07/28 01:55:57;;;;;;;8.68;5.47;;;20.50;99.90;;;;;;5021430;28;20042;-79
2021/07/28 01:58:24;;;;;;;9.07;5.30;;;20.50;99.90;;;;;;5021936;28;20048;-78
2021/07/28 02:00:52;;;;;;;7.78;5.72;;;20.50;99.90;;;;;;5019777;28;20084;-79
2021/07/28 02:03:19;;;;;;;8.40;5.45;;;20.50;99.90;;;;;;5022716;28;20056;-78
2021/07/28 02:05:46;;;;;;;9.48;5.72;;;20.50;99.90;;;;;;5021283;28;20041;-76
2021/07/28 02:08:15;;;;;;;8.27;5.50;;;20.50;99.90;;;;;;5022218;28;20057;-79
2021/07/28 02:10:44;;;;;;;7.40;5.22;;;20.40;99.90;;;;;;5024626;28;20050;-78
2021/07/28 02:13:12;;;;;;;8.52;5.50;;;20.40;99.90;;;;;;5023471;28;20052;-79
2021/07/28 02:15:40;;;;;;;8.13;5.35;;;20.40;99.90;;;;;;5033976;28;20068;-78
2021/07/28 02:18:07;;;;;;;11.23;5.68;;;20.40;99.90;;;;;;5031988;28;20124;-79
2021/07/28 02:20:35;;;;;;;9.10;5.40;;;20.40;99.90;;;;;;5023796;28;20452;-79
2021/07/28 02:23:02;;;;;;;7.90;4.85;;;20.40;99.90;;;;;;5038762;28;20140;-80
2021/07/28 02:25:30;;;;;;;8.13;4.88;;;20.40;99.90;;;;;;5034320;28;20424;-78
2021/07/28 02:27:57;;;;;;;7.75;5.28;;;20.40;99.90;;;;;;5022406;28;20509;-80
2021/07/28 02:30:26;;;;;;;9.05;6.13;;;20.40;99.90;;;;;;5024594;28;20049;-79
2021/07/28 02:32:53;;;;;;;8.85;5.88;;;20.40;99.90;;;;;;5025512;28;20052;-78
2021/07/28 02:35:20;;;;;;;7.75;5.95;;;20.40;99.90;;;;;;5023171;28;20064;-79
2021/07/28 02:37:47;;;;;;;7.65;5.50;;;20.40;99.90;;;;;;5028424;28;20134;-79
2021/07/28 02:40:17;;;;;;;7.50;5.53;;;20.40;99.90;;;;;;5021196;28;20050;-78
2021/07/28 02:42:44;;;;;;;8.25;5.45;;;20.40;99.90;;;;;;5021752;28;20050;-78
2021/07/28 02:45:12;;;;;;;7.85;5.82;;;20.40;99.90;;;;;;5022484;28;20128;-78
2021/07/28 02:47:40;;;;;;;9.45;6.05;;;20.40;99.90;;;;;;5020165;28;20064;-78
2021/07/28 02:50:09;;;;;;;10.52;6.18;;;20.40;99.90;;;;;;5021505;28;20053;-76
2021/07/28 02:52:36;;;;;;;8.73;6.28;;;20.40;99.90;;;;;;5024275;28;20075;-78
2021/07/28 02:55:05;;;;;;;7.55;5.50;;;20.40;99.90;;;;;;5023942;28;20133;-77
2021/07/28 02:57:33;;;;;;;9.00;5.78;;;20.40;99.90;;;;;;5025012;28;20046;-77
2021/07/28 03:00:00;;;;;;;8.70;5.22;;;20.40;99.90;;;;;;5024351;28;20376;-77
2021/07/28 03:02:28;;;;;;;8.07;5.68;;;20.30;99.90;;;;;;5022726;28;20072;-78
2021/07/28 03:04:56;;;;;;;8.82;5.65;;;20.30;99.90;;;;;;5023591;28;20049;-75
2021/07/28 03:07:23;;;;;;;9.10;5.72;;;20.30;99.90;;;;;;5026588;28;20136;-77
2021/07/28 03:09:50;;;;;;;8.50;6.03;;;20.30;99.90;;;;;;5018295;28;20045;-78
2021/07/28 03:12:18;;;;;;;9.05;6.43;;;20.30;99.90;;;;;;5020586;28;20068;-80
2021/07/28 03:14:45;;;;;;;11.15;6.45;;;20.30;99.90;;;;;;5022953;28;20073;-77
2021/07/28 03:17:12;;;;;;;9.70;6.50;;;20.30;99.90;;;;;;5025082;28;20097;-77
2021/07/28 03:19:39;;;;;;;7.85;5.60;;;20.30;99.90;;;;;;5029920;28;20133;-78
2021/07/28 03:22:07;;;;;;;8.15;5.50;;;20.30;99.90;;;;;;5022031;28;20053;-77
2021/07/28 03:24:34;;;;;;;7.80;5.63;;;20.30;99.90;;;;;;5025649;28;20120;-75
2021/07/28 03:27:01;;;;;;;9.43;6.25;;;20.20;99.90;;;;;;5025012;28;20075;-78
2021/07/28 03:29:28;;;;;;;8.15;5.57;;;20.30;99.90;;;;;;5022258;28;20125;-75
2021/07/28 03:31:55;;;;;;;10.35;6.35;;;20.20;99.90;;;;;;5021875;28;20129;-77
2021/07/28 03:34:22;;;;;;;8.32;5.78;;;20.20;99.90;;;;;;5024193;28;20038;-76
2021/07/28 03:36:49;;;;;;;8.20;5.65;;;20.30;99.90;;;;;;5025349;28;20060;-76
2021/07/28 03:39:18;;;;;;;8.23;5.90;;;20.20;99.90;;;;;;5022852;28;20141;-78
2021/07/28 03:41:45;;;;;;;9.15;5.93;;;20.20;99.90;;;;;;5021586;28;20056;-78
2021/07/28 03:44:12;;;;;;;10.27;6.60;;;20.20;99.90;;;;;;5022900;28;20048;-79
2021/07/28 03:46:39;;;;;;;10.05;5.95;;;20.20;99.90;;;;;;5025098;28;20048;-79
2021/07/28 03:49:06;;;;;;;7.80;5.50;;;20.20;99.90;;;;;;5024183;28;20107;-79
2021/07/28 03:51:33;;;;;;;9.45;5.90;;;20.20;99.90;;;;;;5021365;28;20128;-80
2021/07/28 03:54:00;;;;;;;9.05;5.90;;;20.10;99.90;;;;;;5021406;28;20082;-77
2021/07/28 03:56:29;;;;;;;7.40;5.32;;;20.10;99.90;;;;;;5024476;28;20509;-76
2021/07/28 03:58:57;;;;;;;9.25;5.65;;;20.20;99.90;;;;;;5024779;28;20136;-79
2021/07/28 04:01:25;;;;;;;9.23;5.63;;;20.10;99.90;;;;;;5024736;28;20053;-77
2021/07/28 04:03:52;;;;;;;7.72;5.43;;;20.10;99.90;;;;;;5027421;28;20041;-79
2021/07/28 04:06:19;;;;;;;8.55;5.57;;;20.10;99.90;;;;;;5024784;28;20046;-79
2021/07/28 04:08:46;;;;;;;8.35;5.22;;;20.10;99.90;;;;;;5023894;28;20490;-77
2021/07/28 04:11:13;;;;;;;8.35;5.28;;;20.10;99.90;;;;;;5024653;28;20042;-77
2021/07/28 04:13:42;;;;;;;9.02;5.70;;;20.10;99.90;;;;;;5026748;28;20065;-78
2021/07/28 04:16:09;;;;;;;10.85;5.75;;;20.10;99.90;;;;;;5025570;28;20050;-78
2021/07/28 04:18:36;;;;;;;10.57;5.50;;;20.10;99.90;;;;;;5025723;28;20129;-80
2021/07/28 04:21:04;;;;;;;10.15;5.45;;;20.10;99.90;;;;;;5025466;28;20054;-79
2021/07/28 04:23:31;;;;;;;8.05;5.25;;;20.10;99.90;;;;;;5023534;28;20046;-78
2021/07/28 04:25:59;;;;;;;7.75;5.10;;;20.20;99.90;;;;;;5023079;28;20046;-78
2021/07/28 04:28:26;;;;;;;9.48;5.90;;;20.20;99.90;;;;;;5022563;28;20517;-77
2021/07/28 04:30:55;;;;;;;8.18;5.40;;;20.20;99.90;;;;;;5025999;28;20132;-79
2021/07/28 04:33:22;;;;;;;8.45;5.50;;;20.20;99.90;;;;;;5035299;28;20045;-77
2021/07/28 04:35:49;;;;;;;9.57;5.50;;;20.20;99.90;;;;;;5035197;28;20136;-79
2021/07/28 04:38:16;;;;;;;7.38;5.45;;;20.20;99.90;;;;;;5035075;28;20046;-78
2021/07/28 04:40:43;;;;;;;8.68;5.70;;;20.20;99.90;;;;;;5034426;28;20509;-79
2021/07/28 04:43:11;;;;;;;8.00;5.40;;;20.20;99.90;;;;;;5034738;28;20144;-79
2021/07/28 04:45:39;;;;;;;9.48;5.97;;;20.20;99.90;;;;;;5035965;28;20132;-77
2021/07/28 04:48:08;;;;;;;9.75;5.82;;;20.20;99.90;;;;;;5035059;28;20050;-78
2021/07/28 04:50:35;;;;;;;9.32;5.63;;;20.20;99.90;;;;;;5035100;28;20051;-78
2021/07/28 04:53:02;;;;;;;7.55;5.60;;;20.20;99.90;;;;;;5036231;28;20046;-78
2021/07/28 04:55:29;;;;;;;8.02;5.25;;;20.20;99.90;;;;;;5034410;28;20116;-79
2021/07/28 04:57:57;;;;;;;7.80;5.00;;;20.30;99.90;;;;;;5034323;28;20056;-79
2021/07/28 05:00:24;;;;;;;7.18;4.97;;;20.30;99.90;;;;;;5034891;28;20049;-78
2021/07/28 05:02:51;;;;;;;8.38;5.22;;;20.30;99.90;;;;;;5034328;28;20129;-78
2021/07/28 05:05:20;;;;;;;8.50;5.60;;;20.30;99.90;;;;;;5034928;28;20132;-79
2021/07/28 05:07:47;;;;;;;8.73;5.50;;;20.40;99.90;;;;;;5034400;28;20129;-78
2021/07/28 05:10:14;;;;;;;8.13;5.43;;;20.40;99.90;;;;;;5034267;28;20041;-78
2021/07/28 05:12:41;;;;;;;8.45;6.28;;;20.40;99.90;;;;;;5033842;28;20060;-78
2021/07/28 05:15:11;;;;;;;9.70;6.20;;;20.30;99.90;;;;;;5034025;28;20045;-78
2021/07/28 05:17:37;;;;;;;8.50;5.85;;;20.30;99.90;;;;;;5034156;28;20049;-79
2021/07/28 05:20:06;;;;;;;9.82;6.45;;;20.30;99.90;;;;;;5034054;28;20053;-78
2021/07/28 05:22:34;;;;;;;11.55;7.05;;;20.30;99.90;;;;;;5033904;28;20049;-78
2021/07/28 05:25:02;;;;;;;10.45;7.30;;;20.20;99.90;;;;;;5033929;28;20136;-78
2021/07/28 05:27:29;;;;;;;9.73;6.60;;;20.10;99.90;;;;;;5033649;28;20552;-78
2021/07/28 05:29:56;;;;;;;9.50;6.88;;;20.00;99.90;;;;;;5040866;28;20088;-77
2021/07/28 05:32:23;;;;;;;10.82;6.78;;;20.00;99.90;;;;;;5037869;28;20057;-79
2021/07/28 05:34:51;;;;;;;10.30;7.30;;;20.00;99.90;;;;;;5033657;28;20053;-77
2021/07/28 05:37:18;;;;;;;9.95;7.10;;;20.00;99.90;;;;;;5033798;28;20132;-77
2021/07/28 05:39:46;;;;;;;10.60;7.38;;;20.00;99.90;;;;;;5033586;28;20077;-77
2021/07/28 05:42:14;;;;;;;11.38;7.88;;;20.00;99.90;;;;;;5033426;28;20144;-79
2021/07/28 05:44:41;;;;;;;14.65;9.40;;;20.00;99.90;;;;;;5033970;28;20050;-77
2021/07/28 05:47:08;;;;;;;12.55;8.27;;;20.00;99.90;;;;;;5036215;28;20469;-79
2021/07/28 05:49:36;;;;;;;14.00;9.27;;;19.90;99.90;;;;;;5036836;28;20041;-76
2021/07/28 05:52:03;;;;;;;12.45;9.15;;;19.80;99.90;;;;;;5033749;28;20124;-78
2021/07/28 05:54:30;;;;;;;11.02;7.88;;;19.70;99.90;;;;;;5033530;28;20052;-79
2021/07/28 05:56:59;;;;;;;11.30;7.90;;;19.70;99.90;;;;;;5033340;28;20045;-79
2021/07/28 05:59:27;;;;;;;11.15;7.53;;;19.70;99.90;;;;;;5033574;28;20124;-77
2021/07/28 06:01:54;;;;;;;10.07;7.30;;;19.70;99.90;;;;;;5032756;28;20593;-78
2021/07/28 06:04:21;;;;;;;10.88;7.60;;;19.80;99.90;;;;;;5032895;28;20045;-78
2021/07/28 06:06:48;;;;;;;12.23;8.40;;;19.80;99.90;;;;;;5032983;28;20049;-77
2021/07/28 06:09:15;;;;;;;9.32;6.72;;;19.80;99.90;;;;;;5033225;28;20072;-79
2021/07/28 06:11:42;;;;;;;9.63;7.45;;;19.80;99.90;;;;;;5033262;28;20475;-79
2021/07/28 06:14:10;;;;;;;10.57;7.55;;;19.90;99.90;;;;;;5033254;28;20132;-79
2021/07/28 06:16:39;;;;;;;11.85;7.57;;;19.90;99.90;;;;;;5033142;28;20148;-79
2021/07/28 06:19:06;;;;;;;10.25;6.55;;;19.90;99.90;;;;;;5033406;28;20094;-76
2021/07/28 06:21:34;;;;;;;8.80;5.50;;;19.90;99.90;;;;;;5032885;28;20046;-78
2021/07/28 06:24:02;;;;;;;7.93;5.47;;;19.80;99.90;;;;;;5033320;28;20132;-79
2021/07/28 06:26:29;;;;;;;9.07;5.53;;;19.80;99.90;;;;;;5033174;28;20483;-78
2021/07/28 06:28:56;;;;;;;8.52;5.40;;;19.70;99.90;;;;;;5032958;28;20137;-76
2021/07/28 06:31:24;;;;;;;7.22;4.90;;;19.70;99.90;;;;;;5033299;28;20045;-79
2021/07/28 06:33:51;;;;;;;7.43;4.93;;;19.70;99.90;;;;;;5033050;28;20124;-78
2021/07/28 06:36:18;;;;;;;8.77;5.13;;;19.70;99.90;;;;;;5033103;28;20566;-78
2021/07/28 06:38:45;;;;;;;6.72;4.60;;;19.70;99.90;;;;;;5033822;28;20159;-79
2021/07/28 06:41:13;;;;;;;8.40;4.65;;;19.60;99.90;;;;;;5034373;28;20041;-79
2021/07/28 06:43:40;;;;;;;7.25;4.47;;;19.60;99.90;;;;;;5033741;28;20052;-76
2021/07/28 06:46:07;;;;;;;6.75;4.60;;;19.60;99.90;;;;;;5034022;28;20145;-79
2021/07/28 06:48:35;;;;;;;9.23;4.60;;;19.60;99.90;;;;;;5032817;28;20052;-78
2021/07/28 06:51:02;;;;;;;7.53;4.68;;;19.60;99.90;;;;;;5032898;28;20052;-78
2021/07/28 06:53:29;;;;;;;7.70;4.93;;;19.50;99.90;;;;;;5032713;28;20487;-77
2021/07/28 06:55:56;;;;;;;9.30;5.65;;;19.50;99.90;;;;;;5035362;28;20045;-77
2021/07/28 06:58:23;;;;;;;8.15;4.28;;;19.40;99.90;;;;;;5036514;28;20410;-77
2021/07/28 07:00:50;;;;;;;7.10;4.30;;;19.40;99.90;;;;;;5036470;28;20047;-76
2021/07/28 07:03:18;;;;;;;7.35;4.20;;;19.40;99.90;;;;;;5036613;28;20152;-78
2021/07/28 07:05:48;;;;;;;6.32;4.32;;;19.40;99.90;;;;;;5036632;28;20050;-79
2021/07/28 07:08:15;;;;;;;7.18;4.70;;;19.40;99.90;;;;;;5036500;28;20509;-79
2021/07/28 07:10:42;;;;;;;7.82;4.35;;;19.40;99.90;;;;;;5036381;28;20136;-77
2021/07/28 07:13:09;;;;;;;7.43;4.90;;;19.40;99.90;;;;;;5036417;28;20085;-79
2021/07/28 07:15:36;;;;;;;6.35;4.20;;;19.30;99.90;;;;;;5036065;28;20570;-78
2021/07/28 07:18:03;;;;;;;6.78;4.43;;;19.30;99.90;;;;;;5036407;28;20067;-78
2021/07/28 07:20:30;;;;;;;7.88;4.97;;;19.20;99.90;;;;;;5036166;28;20077;-77
2021/07/28 07:22:59;;;;;;;8.05;4.68;;;19.20;99.90;;;;;;5036276;28;20413;-78
2021/07/28 07:25:26;;;;;;;8.40;5.00;;;19.20;99.90;;;;;;5036087;28;20156;-77
2021/07/28 07:27:53;;;;;;;9.50;4.80;;;19.20;99.90;;;;;;5035629;28;20558;-76
2021/07/28 07:30:21;;;;;;;7.93;5.00;;;19.20;99.90;;;;;;5035930;28;20041;-79
2021/07/28 07:33:37;;;;;;;6.40;4.15;;;19.20;99.90;;;;;;5044750;28;20140;-77
2021/07/28 07:35:36;;;;;;;7.55;4.13;;;19.20;99.90;;;;;;5039544;28;20046;-77
2021/07/28 07:38:04;;;;;;;6.85;4.40;;;19.30;99.90;;;;;;5035838;28;20049;-77
2021/07/28 07:40:31;;;;;;;7.15;4.97;;;19.30;99.90;;;;;;5035783;28;20501;-77
2021/07/28 07:42:58;;;;;;;9.13;4.95;;;19.30;99.90;;;;;;5035680;28;20045;-76
2021/07/28 07:45:26;;;;;;;7.80;4.65;;;19.40;99.90;;;;;;5035568;28;20132;-77
2021/07/28 07:47:52;;;;;;;7.93;4.57;;;19.40;99.90;;;;;;5035572;28;20499;-76
2021/07/28 07:50:20;;;;;;;7.60;4.30;;;19.40;99.90;;;;;;5035583;28;20121;-78
2021/07/28 07:52:47;;;;;;;7.65;4.53;;;19.50;99.90;;;;;;5036088;28;20133;-77
2021/07/28 07:55:16;;;;;;;7.18;4.07;;;19.50;99.90;;;;;;5035771;28;20586;-77
2021/07/28 07:57:43;;;;;;;7.55;4.75;;;19.50;99.90;;;;;;5036555;28;20120;-77
2021/07/28 08:00:12;;;;;;;6.28;4.22;;;19.50;99.90;;;;;;5035619;28;20136;-77
2021/07/28 08:02:39;;;;;;;6.90;3.90;;;19.40;99.90;;;;;;5035379;28;20055;-78
2021/07/28 08:05:06;;;;;;;7.22;4.10;;;19.40;99.90;;;;;;5035405;28;20137;-77
2021/07/28 08:07:33;;;;;;;6.00;4.00;;;19.40;99.90;;;;;;5035174;28;20128;-78
2021/07/28 08:10:00;;;;;;;6.20;3.88;;;19.30;99.90;;;;;;5035364;28;20052;-79
2021/07/28 08:12:29;;;;;;;6.85;3.97;;;19.30;99.90;;;;;;5034901;28;20096;-79
2021/07/28 08:14:56;;;;;;;7.68;3.88;;;19.20;99.90;;;;;;5035207;28;20128;-78
2021/07/28 08:17:23;;;;;;;6.55;3.65;;;19.20;99.90;;;;;;5035549;28;20144;-77
2021/07/28 08:19:50;;;;;;;6.13;3.85;;;19.20;99.90;;;;;;5035300;28;20045;-78
2021/07/28 08:22:17;;;;;;;6.50;3.40;;;19.20;99.90;;;;;;5034818;28;20479;-78
2021/07/28 08:24:44;;;;;;;6.30;3.38;;;19.10;99.90;;;;;;5035205;28;20049;-77
2021/07/28 08:27:11;;;;;;;6.07;3.70;;;19.10;99.90;;;;;;5034447;28;20049;-79
2021/07/28 08:29:40;;;;;;;5.60;3.50;;;19.10;99.90;;;;;;5034926;28;20051;-77
2021/07/28 08:32:07;;;;;;;7.38;3.90;;;19.10;99.90;;;;;;5034919;28;20048;-78
2021/07/28 08:34:34;;;;;;;7.22;3.83;;;19.00;99.90;;;;;;5034921;28;20045;-77
2021/07/28 08:37:01;;;;;;;8.25;3.90;;;19.00;99.90;;;;;;5034772;28;20046;-78
2021/07/28 08:39:29;;;;;;;6.30;3.80;;;19.00;99.90;;;;;;5034396;28;20140;-76
2021/07/28 08:42:04;;;;;;;6.80;3.90;;;19.10;99.90;;;;;;5034422;28;20107;-78
2021/07/28 08:44:34;;;;;;;5.80;3.80;;;19.10;99.90;;;;;;5034858;28;20053;-78
2021/07/28 08:47:03;;;;;;;5.38;3.20;;;19.10;99.90;;;;;;5034807;28;20048;-79
2021/07/28 08:49:30;;;;;;;7.00;4.13;;;19.10;99.90;;;;;;5034569;28;20041;-79
2021/07/28 08:51:57;;;;;;;5.28;3.38;;;19.20;99.90;;;;;;5034517;28;20056;-78
2021/07/28 08:54:24;;;;;;;7.68;4.00;;;19.30;99.90;;;;;;5034239;28;20124;-79
2021/07/28 08:56:54;;;;;;;5.80;3.30;;;19.30;99.90;;;;;;5034256;28;20049;-78
2021/07/28 08:59:26;;;;;;;5.13;3.42;;;19.40;99.90;;;;;;5034589;28;20077;-77
2021/07/28 09:01:54;;;;;;;5.85;3.30;;;19.40;99.90;;;;;;5034608;28;20132;-79
2021/07/28 09:04:23;;;;;;;7.43;3.55;;;19.50;99.90;;;;;;5034224;28;20052;-78
2021/07/28 09:06:51;;;;;;;5.32;3.30;;;19.50;99.90;;;;;;5034305;28;20136;-78
2021/07/28 09:09:18;;;;;;;5.25;3.50;;;19.60;99.90;;;;;;5033814;28;20128;-77
2021/07/28 09:11:56;;;;;;;5.60;3.33;;;19.60;99.90;;;;;;5034060;28;20049;-77
2021/07/28 09:14:27;;;;;;;6.15;3.00;;;19.70;99.90;;;;;;5033900;28;20487;-75
2021/07/28 09:16:55;;;;;;;6.70;3.42;;;19.80;99.90;;;;;;5034279;28;20402;-78
2021/07/28 09:19:46;;;;;;;6.47;3.38;;;19.90;99.90;;;;;;5033491;28;20052;-78
2021/07/28 09:22:14;;;;;;;6.53;3.20;;;20.00;99.90;;;;;;5034038;28;20410;-77
2021/07/28 09:24:44;;;;;;;6.63;3.95;;;20.00;99.90;;;;;;5022282;28;20399;-78
2021/07/28 09:27:45;;;;;;;6.78;3.53;;;20.10;99.90;;;;;;5013754;28;20085;-78
2021/07/28 09:30:18;;;;;;;5.90;3.20;;;20.20;99.90;;;;;;5013682;28;20124;-75
2021/07/28 09:33:05;;;;;;;4.60;2.90;;;20.30;99.90;;;;;;5013956;28;20480;-74
2021/07/28 09:36:17;;;;;;;5.20;3.00;;;20.30;99.90;;;;;;5020341;28;20106;-74
2021/07/28 09:38:48;;;;;;;6.13;3.08;;;20.40;99.90;;;;;;5016718;28;20137;-75
2021/07/28 09:41:23;;;;;;;5.30;2.72;;;20.40;99.90;;;;;;5013941;28;20046;-77
2021/07/28 09:43:56;;;;;;;4.72;3.00;;;20.50;99.90;;;;;;5014300;28;20053;-73
2021/07/28 09:46:32;;;;;;;5.10;3.20;;;20.60;99.90;;;;;;5015952;28;20415;-75
2021/07/28 09:49:01;;;;;;;5.80;2.92;;;20.70;99.90;;;;;;5017006;28;20549;-74
2021/07/28 09:51:34;;;;;;;5.25;2.75;;;20.80;99.90;;;;;;5030101;28;20567;-74
2021/07/28 09:54:05;;;;;;;4.93;2.90;;;20.90;99.90;;;;;;5030162;28;20045;-75
2021/07/28 09:56:49;;;;;;;4.72;2.97;;;21.00;99.90;;;;;;5031508;28;20562;-75
2021/07/28 09:59:17;;;;;;;4.65;2.85;;;21.10;99.90;;;;;;5028736;28;20077;-75
2021/07/28 10:01:46;;;;;;;4.75;2.60;;;21.20;99.60;;;;;;5010686;28;20072;-75
2021/07/28 10:04:15;;;;;;;5.20;3.20;;;21.30;99.00;;;;;;5011429;28;20065;-76
2021/07/28 10:06:45;;;;;;;5.13;2.90;;;21.30;98.30;;;;;;5021569;28;20056;-75
2021/07/28 10:09:16;;;;;;;4.80;2.88;;;21.30;98.20;;;;;;5030138;28;20049;-74
2021/07/28 10:11:46;;;;;;;4.90;3.00;;;21.40;97.70;;;;;;5030444;28;20077;-75
2021/07/28 10:14:18;;;;;;;5.22;2.70;;;21.40;97.00;;;;;;5030048;28;20163;-75
2021/07/28 10:16:45;;;;;;;5.55;3.15;;;21.40;96.90;;;;;;5026156;28;20046;-75
2021/07/28 10:19:13;;;;;;;4.75;2.50;;;21.40;96.30;;;;;;5020061;28;20518;-76
2021/07/28 10:21:40;;;;;;;6.18;2.95;;;21.50;96.80;;;;;;5011255;28;20052;-75
2021/07/28 10:24:11;;;;;;;4.90;2.78;;;21.50;96.70;;;;;;5035846;28;20148;-75
2021/07/28 10:26:43;;;;;;;5.53;2.90;;;21.60;96.70;;;;;;5039820;28;20095;-75
2021/07/28 10:29:10;;;;;;;4.82;2.63;;;21.70;96.90;;;;;;5042268;28;20077;-75
2021/07/28 10:31:48;;;;;;;4.78;2.80;;;21.70;96.20;;;;;;5044303;28;20136;-76
2021/07/28 10:34:27;;;;;;;4.72;3.00;;;21.70;95.60;;;;;;5032610;28;20132;-75
2021/07/28 10:36:58;;;;;;;4.70;2.70;;;21.80;95.30;;;;;;5035190;28;20053;-75
2021/07/28 10:39:43;;;;;;;4.63;2.78;;;21.80;95.60;;;;;;5033966;28;20052;-75
2021/07/28 10:42:14;;;;;;;6.20;2.90;;;21.80;95.90;;;;;;5033587;28;20046;-74
2021/07/28 10:45:06;;;;;;;4.53;2.70;;;21.90;95.00;;;;;;5022356;28;20140;-75
2021/07/28 10:47:43;;;;;;;5.57;2.95;;;21.90;94.60;;;;;;5014266;28;20060;-74
2021/07/28 10:50:43;;;;;;;4.75;2.80;;;21.90;94.30;;;;;;5014346;28;20138;-77
2021/07/28 10:53:10;;;;;;;5.00;2.85;;;21.90;94.50;;;;;;5014103;28;20081;-74
2021/07/28 10:55:38;;;;;;;4.65;2.47;;;22.00;94.80;;;;;;5016340;28;20058;-74
2021/07/28 10:58:29;;;;;;;4.47;2.50;;;22.10;94.70;;;;;;5034424;28;20406;-75
2021/07/28 11:01:01;;;;;;;4.97;2.85;;;22.10;93.90;;;;;;5034507;28;20047;-75
2021/07/28 11:03:35;;;;;;;3.90;2.40;;;22.20;93.10;;;;;;5034177;28;20141;-75
2021/07/28 11:06:22;;;;;;;4.95;2.65;;;22.20;92.50;;;;;;5033581;28;20483;-75
2021/07/28 11:08:50;;;;;;;4.70;2.70;;;22.20;92.20;;;;;;5033803;28;20503;-74
2021/07/28 11:11:29;;;;;;;4.82;2.50;;;22.20;91.80;;;;;;5023003;28;20050;-75
2021/07/28 11:14:02;;;;;;;4.38;2.47;;;22.30;92.10;;;;;;5015037;28;20129;-75
2021/07/28 11:16:29;;;;;;;4.50;2.60;;;22.30;92.20;;;;;;5024935;28;20077;-74
2021/07/28 11:18:56;;;;;;;5.32;2.70;;;22.30;91.80;;;;;;5014016;28;20046;-74
2021/07/28 11:21:28;;;;;;;4.43;2.53;;;22.30;91.50;;;;;;5028457;28;20099;-75
2021/07/28 11:24:00;;;;;;;5.22;2.60;;;22.30;91.40;;;;;;5031558;28;20128;-75
2021/07/28 11:26:30;;;;;;;4.65;2.60;;;22.30;91.20;;;;;;5026494;28;20054;-74
2021/07/28 11:29:04;;;;;;;5.05;2.47;;;22.30;90.80;;;;;;5014298;28;20085;-75
2021/07/28 11:31:34;;;;;;;4.35;2.47;;;22.40;91.20;;;;;;5014283;28;20053;-74
2021/07/28 11:34:14;;;;;;;5.35;2.63;;;22.40;91.20;;;;;;5013708;28;20057;-75
2021/07/28 11:36:43;;;;;;;4.72;2.65;;;22.40;91.40;;;;;;5014836;28;20050;-75
2021/07/28 11:39:17;;;;;;;5.38;2.65;;;22.40;91.40;;;;;;5032895;28;20117;-76
2021/07/28 11:41:46;;;;;;;5.37;2.70;;;22.30;90.70;;;;;;5036315;28;20100;-74
2021/07/28 11:44:15;;;;;;;4.45;2.70;;;22.30;91.10;;;;;;5033465;28;20049;-74
2021/07/28 11:46:53;;;;;;;5.30;2.40;;;22.20;90.70;;;;;;5033086;28;20138;-74
2021/07/28 11:49:26;;;;;;;5.35;2.85;;;22.20;90.90;;;;;;5032826;28;20081;-75
2021/07/28 11:51:59;;;;;;;4.75;2.47;;;22.20;90.70;;;;;;5033278;28;20129;-75
2021/07/28 11:54:29;;;;;;;5.13;2.70;;;22.10;90.90;;;;;;5025147;28;20045;-75
2021/07/28 11:56:56;;;;;;;5.10;2.63;;;22.20;90.90;;;;;;5017384;28;20053;-74
2021/07/28 11:59:28;;;;;;;7.03;3.13;;;22.20;90.60;;;;;;5015238;28;20128;-74
2021/07/28 12:01:56;;;;;;;5.45;3.10;;;22.20;88.50;;;;;;5033982;28;20479;-74
2021/07/28 12:04:26;;;;;;;6.05;2.85;;;22.20;88.10;;;;;;5034751;28;20064;-74
2021/07/28 12:06:54;;;;;;;6.38;2.90;;;22.20;87.70;;;;;;5034510;28;20578;-75
2021/07/28 12:09:23;;;;;;;5.35;2.80;;;22.10;88.30;;;;;;5034688;28;20073;-75
2021/07/28 12:12:01;;;;;;;4.63;2.70;;;22.00;88.90;;;;;;5028994;28;20372;-75
2021/07/28 12:14:34;;;;;;;5.90;2.58;;;22.10;88.90;;;;;;5013486;28;20144;-75
2021/07/28 12:17:05;;;;;;;5.90;2.70;;;22.20;88.00;;;;;;5012746;28;20217;-75
2021/07/28 12:19:34;;;;;;;4.45;2.55;;;22.30;88.20;;;;;;5012936;28;20046;-79
2021/07/28 12:22:05;;;;;;;3.85;2.30;;;22.30;86.80;;;;;;4995141;28;20046;-72
2021/07/28 12:24:44;;;;;;;5.85;2.70;;;22.30;86.60;;;;;;5011883;28;20052;-76
2021/07/28 12:27:37;;;;;;;5.07;2.78;;;22.40;87.40;;;;;;5012480;28;20056;-78
2021/07/28 12:30:18;;;;;;;5.53;2.80;;;22.40;86.30;;;;;;5005919;28;20049;-78
2021/07/28 12:32:48;;;;;;;4.70;2.60;;;22.40;85.60;;;;;;5013699;28;20049;-80
2021/07/28 12:35:38;;;;;;;4.68;2.60;;;22.40;85.80;;;;;;5012670;28;20054;-79
2021/07/28 12:38:08;;;;;;;4.97;2.55;;;22.60;87.90;;;;;;5011990;28;20458;-80
2021/07/28 12:40:36;;;;;;;3.78;2.10;;;22.70;87.50;;;;;;5012442;28;20073;-80
2021/07/28 12:43:06;;;;;;;3.83;2.20;;;22.80;87.10;;;;;;5015732;28;20042;-80
2021/07/28 12:45:35;;;;;;;4.38;2.42;;;23.00;87.00;;;;;;5032992;28;20045;-78
2021/07/28 12:48:03;;;;;;;4.60;2.50;;;23.10;85.70;;;;;;5032290;28;20056;-80
2021/07/28 12:50:30;;;;;;;4.10;2.25;;;23.10;84.80;;;;;;5031365;28;20497;-81
2021/07/28 12:52:58;;;;;;;4.10;2.42;;;23.20;85.10;;;;;;5032328;28;20052;-77
2021/07/28 12:55:25;;;;;;;5.85;2.90;;;23.30;84.30;;;;;;5032488;28;20045;-78
2021/07/28 12:57:52;;;;;;;4.95;3.15;;;23.40;82.60;;;;;;5032000;28;20056;-80
2021/07/28 13:00:19;;;;;;;4.70;2.47;;;23.30;82.70;;;;;;5031753;28;20049;-81